Time;durP1;ratioP1;P1;durP2;ratioP2;P2;SDS_P1;SDS_P2;PMS_P1;PMS_P2;Temp;Humidity;BMP_temperature;BMP_pressure;BME280_temperature;BME280_humidity;BME280_pressure;Samples;Min_cycle;Max_cycle;Signal;HPM_P1;HPM_P2
2021/05/12 00:01:22;;;;;;;11.07;4.10;;;;;;;;;;4976933;28;20073;-79
2021/05/12 00:03:48;;;;;;;6.90;4.10;;;;;;;;;;4977206;28;20595;-80
2021/05/12 00:06:14;;;;;;;6.80;3.95;;;;;;;;;;4977045;28;20030;-80
2021/05/12 00:08:40;;;;;;;5.82;3.55;;;;;;;;;;4976330;28;20097;-80
2021/05/12 00:11:06;;;;;;;8.95;4.20;;;;;;;;;;4976972;28;20043;-79
2021/05/12 00:13:32;;;;;;;6.65;4.05;;;;;;;;;;4976640;28;20046;-81
2021/05/12 00:15:59;;;;;;;9.30;3.72;;;;;;;;;;4976728;28;20101;-80
2021/05/12 00:18:27;;;;;;;9.85;3.80;;;;;;;;;;4975681;28;20490;-81
2021/05/12 00:20:53;;;;;;;5.00;3.53;;;;;;;;;;4976870;28;20027;-81
2021/05/12 00:23:26;;;;;;;8.25;4.38;;;;;;;;;;4976586;28;20035;-79
2021/05/12 00:25:52;;;;;;;8.15;4.20;;;;;;;;;;4976101;28;20031;-82
2021/05/12 00:28:18;;;;;;;9.52;4.38;;;;;;;;;;4976843;28;20038;-80
2021/05/12 00:30:44;;;;;;;10.48;3.92;;;;;;;;;;4976222;28;20491;-80
2021/05/12 00:33:13;;;;;;;6.97;3.55;;;;;;;;;;4978210;28;20034;-80
2021/05/12 00:35:39;;;;;;;14.10;4.60;;;;;;;;;;4978103;28;20026;-80
2021/05/12 00:38:05;;;;;;;5.97;3.83;;;;;;;;;;4976477;28;20054;-80
2021/05/12 00:40:31;;;;;;;6.70;4.53;;;;;;;;;;4975805;28;20468;-81
2021/05/12 00:42:57;;;;;;;7.43;4.07;;;;;;;;;;4976241;28;20031;-81
2021/05/12 00:45:24;;;;;;;6.88;4.50;;;;;;;;;;4976737;28;20026;-79
2021/05/12 00:47:50;;;;;;;8.45;3.97;;;;;;;;;;4976400;28;20069;-79
2021/05/12 00:50:17;;;;;;;6.78;4.07;;;;;;;;;;4976601;28;20039;-80
2021/05/12 00:52:44;;;;;;;6.50;3.67;;;;;;;;;;4976324;28;20019;-80
2021/05/12 00:55:10;;;;;;;7.80;4.05;;;;;;;;;;4975445;28;20058;-80
2021/05/12 00:57:37;;;;;;;9.02;3.70;;;;;;;;;;4976145;28;20023;-81
2021/05/12 01:00:07;;;;;;;8.10;3.70;;;;;;;;;;4975939;28;20027;-78
2021/05/12 01:02:33;;;;;;;8.07;3.60;;;;;;;;;;4976308;28;20512;-80
2021/05/12 01:05:00;;;;;;;8.50;3.85;;;;;;;;;;4976644;28;20205;-81
2021/05/12 01:07:26;;;;;;;6.88;3.10;;;;;;;;;;4977864;28;20527;-80
2021/05/12 01:09:52;;;;;;;8.27;3.55;;;;;;;;;;4977125;28;20090;-80
2021/05/12 01:12:19;;;;;;;7.90;3.85;;;;;;;;;;4975033;28;20089;-80
2021/05/12 01:14:45;;;;;;;7.47;3.55;;;;;;;;;;4976322;28;20030;-81
2021/05/12 01:17:11;;;;;;;8.48;4.07;;;;;;;;;;4977151;28;20027;-79
2021/05/12 01:19:39;;;;;;;6.03;3.13;;;;;;;;;;4976259;28;20053;-80
2021/05/12 01:22:05;;;;;;;6.47;3.55;;;;;;;;;;4976240;28;20608;-81
2021/05/12 01:24:31;;;;;;;8.88;4.40;;;;;;;;;;4975945;28;20027;-80
2021/05/12 01:26:57;;;;;;;7.75;3.88;;;;;;;;;;4975284;28;20026;-80
2021/05/12 01:29:23;;;;;;;6.10;3.55;;;;;;;;;;4976904;28;20034;-81
2021/05/12 01:31:49;;;;;;;6.45;3.42;;;;;;;;;;4975987;28;20061;-81
2021/05/12 01:34:16;;;;;;;8.70;4.18;;;;;;;;;;4975721;28;20033;-81
2021/05/12 01:36:43;;;;;;;6.15;3.50;;;;;;;;;;4975285;28;20031;-80
2021/05/12 01:39:10;;;;;;;5.95;3.47;;;;;;;;;;4976097;28;20050;-80
2021/05/12 01:41:36;;;;;;;5.43;3.60;;;;;;;;;;4974464;28;20033;-81
2021/05/12 01:44:05;;;;;;;5.95;3.63;;;;;;;;;;4975322;28;20034;-80
2021/05/12 01:46:31;;;;;;;8.35;4.35;;;;;;;;;;4975326;28;20027;-80
2021/05/12 01:48:59;;;;;;;13.00;3.90;;;;;;;;;;4976309;28;20031;-81
2021/05/12 01:51:25;;;;;;;7.65;2.85;;;;;;;;;;4975059;28;20042;-82
2021/05/12 01:53:51;;;;;;;5.63;3.75;;;;;;;;;;4975050;28;20023;-79
2021/05/12 01:56:17;;;;;;;5.93;3.58;;;;;;;;;;4974221;28;20038;-80
2021/05/12 01:58:43;;;;;;;7.35;3.45;;;;;;;;;;4976779;28;20077;-81
2021/05/12 02:01:10;;;;;;;8.02;3.42;;;;;;;;;;4974904;28;20082;-80
2021/05/12 02:03:36;;;;;;;8.77;4.25;;;;;;;;;;4975754;28;20429;-80
2021/05/12 02:06:02;;;;;;;6.93;3.97;;;;;;;;;;4974658;28;20527;-80
2021/05/12 02:08:29;;;;;;;6.82;4.00;;;;;;;;;;4974550;28;20117;-81
2021/05/12 02:10:57;;;;;;;8.60;4.10;;;;;;;;;;4974142;28;20069;-80
2021/05/12 02:13:25;;;;;;;7.70;3.63;;;;;;;;;;4974461;28;20407;-80
2021/05/12 02:15:51;;;;;;;8.38;4.05;;;;;;;;;;4974849;28;20023;-81
2021/05/12 02:18:18;;;;;;;6.45;3.65;;;;;;;;;;4975112;28;20460;-80
2021/05/12 02:20:44;;;;;;;5.97;3.85;;;;;;;;;;4974898;28;20030;-80
2021/05/12 02:23:11;;;;;;;7.68;3.65;;;;;;;;;;4974869;28;20518;-80
2021/05/12 02:25:38;;;;;;;6.15;3.80;;;;;;;;;;4974594;28;20118;-80
2021/05/12 02:28:04;;;;;;;6.28;3.90;;;;;;;;;;4975428;28;20384;-79
2021/05/12 02:30:31;;;;;;;6.95;3.90;;;;;;;;;;4976482;28;20460;-79
2021/05/12 02:32:57;;;;;;;12.48;3.67;;;;;;;;;;4974849;28;20023;-80
2021/05/12 02:35:23;;;;;;;7.20;3.70;;;;;;;;;;4975896;28;20042;-79
2021/05/12 02:37:49;;;;;;;7.38;3.92;;;;;;;;;;4974845;28;20114;-79
2021/05/12 02:40:17;;;;;;;17.00;4.55;;;;;;;;;;4975975;28;20565;-80
2021/05/12 02:42:43;;;;;;;6.65;3.90;;;;;;;;;;4979164;28;20146;-81
2021/05/12 02:45:09;;;;;;;6.57;4.07;;;;;;;;;;4980858;28;20031;-79
2021/05/12 02:47:36;;;;;;;11.25;4.35;;;;;;;;;;4978564;28;20484;-80
2021/05/12 02:50:03;;;;;;;6.63;4.22;;;;;;;;;;4979734;28;20388;-80
2021/05/12 02:52:29;;;;;;;7.90;4.30;;;;;;;;;;4978401;28;20134;-80
2021/05/12 02:54:55;;;;;;;6.65;4.35;;;;;;;;;;4980117;28;20101;-81
2021/05/12 02:57:22;;;;;;;6.07;3.78;;;;;;;;;;4977642;28;20595;-81
2021/05/12 02:59:49;;;;;;;7.55;4.03;;;;;;;;;;4978412;28;20097;-80
2021/05/12 03:02:16;;;;;;;8.18;4.70;;;;;;;;;;4979790;28;20463;-81
2021/05/12 03:04:42;;;;;;;9.65;4.57;;;;;;;;;;4978013;28;20019;-80
2021/05/12 03:07:08;;;;;;;8.38;4.50;;;;;;;;;;4979961;28;20019;-80
2021/05/12 03:09:35;;;;;;;6.68;4.05;;;;;;;;;;4979152;28;20392;-79
2021/05/12 03:12:01;;;;;;;14.60;4.57;;;;;;;;;;4979125;28;20055;-81
2021/05/12 03:14:29;;;;;;;8.27;4.03;;;;;;;;;;4977349;28;20429;-80
2021/05/12 03:16:55;;;;;;;9.43;4.07;;;;;;;;;;4978876;28;20027;-80
2021/05/12 03:19:26;;;;;;;9.98;4.68;;;;;;;;;;4978002;28;20488;-81
2021/05/12 03:21:54;;;;;;;9.48;4.28;;;;;;;;;;4978244;28;20365;-81
2021/05/12 03:24:20;;;;;;;8.93;4.30;;;;;;;;;;4978322;28;20034;-81
2021/05/12 03:26:46;;;;;;;6.93;3.75;;;;;;;;;;4977362;28;20029;-81
2021/05/12 03:29:12;;;;;;;7.10;4.07;;;;;;;;;;4977987;28;20054;-80
2021/05/12 03:31:38;;;;;;;9.73;3.63;;;;;;;;;;4976903;28;20097;-80
2021/05/12 03:34:04;;;;;;;7.65;3.50;;;;;;;;;;4977450;28;20069;-81
2021/05/12 03:36:31;;;;;;;7.50;4.20;;;;;;;;;;4977635;28;20038;-80
2021/05/12 03:38:58;;;;;;;5.82;3.33;;;;;;;;;;4977347;28;20035;-80
2021/05/12 03:41:24;;;;;;;8.27;3.78;;;;;;;;;;4977885;28;20066;-80
2021/05/12 03:43:51;;;;;;;9.75;4.35;;;;;;;;;;4977002;28;20360;-81
2021/05/12 03:46:17;;;;;;;6.70;3.70;;;;;;;;;;4978718;28;20042;-81
2021/05/12 03:48:43;;;;;;;6.90;4.25;;;;;;;;;;4978613;28;20353;-80
2021/05/12 03:51:09;;;;;;;6.53;3.80;;;;;;;;;;4977267;28;20034;-82
2021/05/12 03:53:35;;;;;;;7.63;4.47;;;;;;;;;;4975973;28;20026;-80
2021/05/12 03:56:01;;;;;;;7.00;3.97;;;;;;;;;;4977301;28;20031;-83
2021/05/12 03:58:27;;;;;;;5.88;3.30;;;;;;;;;;4976492;28;20074;-82
2021/05/12 04:00:53;;;;;;;6.88;3.95;;;;;;;;;;4977291;28;20400;-80
2021/05/12 04:03:19;;;;;;;5.35;3.63;;;;;;;;;;4977231;28;20065;-79
2021/05/12 04:05:46;;;;;;;6.25;3.15;;;;;;;;;;4977115;28;20154;-79
2021/05/12 04:08:12;;;;;;;8.88;3.47;;;;;;;;;;4978222;28;20023;-80
2021/05/12 04:10:38;;;;;;;6.95;3.35;;;;;;;;;;4976742;28;20511;-80
2021/05/12 04:13:04;;;;;;;6.95;3.92;;;;;;;;;;4977359;28;20051;-79
2021/05/12 04:15:30;;;;;;;7.53;3.40;;;;;;;;;;4976819;28;20030;-79
2021/05/12 04:17:56;;;;;;;5.20;3.30;;;;;;;;;;4978540;28;20026;-78
2021/05/12 04:20:22;;;;;;;9.25;3.97;;;;;;;;;;4978015;28;20106;-79
2021/05/12 04:22:49;;;;;;;8.50;3.60;;;;;;;;;;4976589;28;20480;-79
2021/05/12 04:25:20;;;;;;;6.47;3.63;;;;;;;;;;4976148;28;20408;-80
2021/05/12 04:27:47;;;;;;;12.27;3.88;;;;;;;;;;4975558;28;20392;-80
2021/05/12 04:30:15;;;;;;;9.80;3.47;;;;;;;;;;4977100;28;20093;-81
2021/05/12 04:32:42;;;;;;;6.88;3.45;;;;;;;;;;4976559;28;20038;-79
2021/05/12 04:35:08;;;;;;;7.50;3.60;;;;;;;;;;4976470;28;20023;-78
2021/05/12 04:37:34;;;;;;;6.30;3.88;;;;;;;;;;4976429;28;20039;-79
2021/05/12 04:40:01;;;;;;;6.32;4.03;;;;;;;;;;4977699;28;20037;-80
2021/05/12 04:42:28;;;;;;;17.10;4.35;;;;;;;;;;4975707;28;20113;-83
2021/05/12 04:44:57;;;;;;;9.15;4.00;;;;;;;;;;4976244;28;20455;-81
2021/05/12 04:47:23;;;;;;;6.05;3.65;;;;;;;;;;4977516;28;20056;-81
2021/05/12 04:49:49;;;;;;;8.15;3.58;;;;;;;;;;4976164;28;20408;-81
2021/05/12 04:52:16;;;;;;;5.95;3.30;;;;;;;;;;4977397;28;20030;-81
2021/05/12 04:54:42;;;;;;;7.00;3.70;;;;;;;;;;4977332;28;20438;-82
2021/05/12 04:57:08;;;;;;;6.93;3.55;;;;;;;;;;4977115;28;20470;-80
2021/05/12 04:59:34;;;;;;;5.90;3.78;;;;;;;;;;4976184;28;20125;-80
2021/05/12 05:02:03;;;;;;;6.90;3.50;;;;;;;;;;4977782;28;20026;-83
2021/05/12 05:04:29;;;;;;;12.57;3.53;;;;;;;;;;4975615;28;20038;-81
2021/05/12 05:06:55;;;;;;;11.30;3.90;;;;;;;;;;4976439;28;20034;-81
2021/05/12 05:09:22;;;;;;;8.95;3.88;;;;;;;;;;4977007;28;20031;-80
2021/05/12 05:11:48;;;;;;;4.55;2.90;;;;;;;;;;4974933;28;20138;-80
2021/05/12 05:14:14;;;;;;;5.15;2.92;;;;;;;;;;4977053;28;20544;-81
2021/05/12 05:16:40;;;;;;;9.85;3.20;;;;;;;;;;4975503;28;20106;-80
2021/05/12 05:19:06;;;;;;;5.57;3.05;;;;;;;;;;4976779;28;20069;-80
2021/05/12 05:21:32;;;;;;;4.50;2.67;;;;;;;;;;4975695;28;20027;-81
2021/05/12 05:23:59;;;;;;;10.25;2.83;;;;;;;;;;4975677;28;20035;-82
2021/05/12 05:26:26;;;;;;;6.75;2.85;;;;;;;;;;4974966;28;20090;-84
2021/05/12 05:28:52;;;;;;;5.95;2.88;;;;;;;;;;4975663;28;20066;-82
2021/05/12 05:31:18;;;;;;;4.40;2.40;;;;;;;;;;4976655;28;20035;-84
2021/05/12 05:33:45;;;;;;;7.18;2.42;;;;;;;;;;4976633;28;20416;-88
2021/05/12 05:36:11;;;;;;;5.65;2.53;;;;;;;;;;4975220;28;20173;-82
2021/05/12 05:38:37;;;;;;;6.90;2.47;;;;;;;;;;4977268;28;20038;-83
2021/05/12 05:41:04;;;;;;;4.85;2.70;;;;;;;;;;4974794;28;20039;-83
2021/05/12 05:43:30;;;;;;;4.28;2.78;;;;;;;;;;4976797;28;20420;-82
2021/05/12 05:45:57;;;;;;;6.35;3.10;;;;;;;;;;4977124;28;20085;-82
2021/05/12 05:48:23;;;;;;;4.93;3.33;;;;;;;;;;4975470;28;20038;-82
2021/05/12 05:50:49;;;;;;;5.45;3.00;;;;;;;;;;4975079;28;20043;-80
2021/05/12 05:53:19;;;;;;;9.32;2.72;;;;;;;;;;4975231;28;20019;-81
2021/05/12 05:55:46;;;;;;;5.30;2.78;;;;;;;;;;4975160;28;20033;-81
2021/05/12 05:58:12;;;;;;;10.57;2.67;;;;;;;;;;4974519;28;20022;-82
2021/05/12 06:00:41;;;;;;;4.50;2.38;;;;;;;;;;4975182;28;20027;-82
2021/05/12 06:03:08;;;;;;;8.38;2.22;;;;;;;;;;4976874;28;20054;-83
2021/05/12 06:05:34;;;;;;;5.95;2.53;;;;;;;;;;4975286;28;20081;-82
2021/05/12 06:08:00;;;;;;;3.75;2.15;;;;;;;;;;4974823;28;20094;-82
2021/05/12 06:10:27;;;;;;;6.60;2.80;;;;;;;;;;4974913;28;20495;-85
2021/05/12 06:12:53;;;;;;;4.78;2.38;;;;;;;;;;4975435;28;20082;-82
2021/05/12 06:15:20;;;;;;;3.80;2.20;;;;;;;;;;4975472;28;20030;-82
2021/05/12 06:17:49;;;;;;;5.57;2.15;;;;;;;;;;4974863;28;20531;-81
2021/05/12 06:20:16;;;;;;;7.47;2.30;;;;;;;;;;4975710;28;20035;-81
2021/05/12 06:22:43;;;;;;;4.50;2.45;;;;;;;;;;4976395;28;20019;-80
2021/05/12 06:25:10;;;;;;;3.78;2.17;;;;;;;;;;4974913;28;20041;-81
2021/05/12 06:27:40;;;;;;;9.45;2.33;;;;;;;;;;4975322;28;20050;-79
2021/05/12 06:30:07;;;;;;;3.75;2.20;;;;;;;;;;4975278;28;20031;-84
2021/05/12 06:32:33;;;;;;;6.82;2.65;;;;;;;;;;4975054;28;20035;-80
2021/05/12 06:34:59;;;;;;;4.35;2.40;;;;;;;;;;4974621;28;20023;-79
2021/05/12 06:37:25;;;;;;;3.85;2.53;;;;;;;;;;4974583;28;20369;-84
2021/05/12 06:39:51;;;;;;;6.32;2.70;;;;;;;;;;4974835;28;20476;-79
2021/05/12 06:42:18;;;;;;;6.13;2.90;;;;;;;;;;4974546;28;20031;-81
2021/05/12 06:44:44;;;;;;;9.93;2.92;;;;;;;;;;4975412;28;20015;-81
2021/05/12 06:47:10;;;;;;;7.15;4.35;;;;;;;;;;4975098;28;20035;-82
2021/05/12 06:49:36;;;;;;;7.38;4.63;;;;;;;;;;4973216;28;20492;-83
2021/05/12 06:52:03;;;;;;;6.03;3.83;;;;;;;;;;4975415;28;20042;-90
2021/05/12 06:54:29;;;;;;;7.63;4.40;;;;;;;;;;4978166;28;20027;-87
2021/05/12 06:56:56;;;;;;;7.38;4.82;;;;;;;;;;4978776;28;20039;-83
2021/05/12 06:59:22;;;;;;;6.50;4.60;;;;;;;;;;4974185;28;20023;-85
2021/05/12 07:01:49;;;;;;;7.22;4.68;;;;;;;;;;4974623;28;20023;-87
2021/05/12 07:04:15;;;;;;;7.22;4.55;;;;;;;;;;4974422;28;20030;-86
2021/05/12 07:06:41;;;;;;;6.47;3.92;;;;;;;;;;4974865;28;20027;-86
2021/05/12 07:09:07;;;;;;;10.80;5.00;;;;;;;;;;4975362;28;20026;-85
2021/05/12 07:11:33;;;;;;;8.57;5.57;;;;;;;;;;4973871;28;20053;-86
2021/05/12 07:13:59;;;;;;;6.65;3.80;;;;;;;;;;4973452;28;20054;-88
2021/05/12 07:16:25;;;;;;;8.88;3.70;;;;;;;;;;4974571;28;20031;-87
2021/05/12 07:18:51;;;;;;;6.82;4.20;;;;;;;;;;4974728;28;20506;-87
2021/05/12 07:21:17;;;;;;;5.43;3.40;;;;;;;;;;4974413;28;20114;-89
2021/05/12 07:23:44;;;;;;;10.00;4.55;;;;;;;;;;4974396;28;20023;-87
2021/05/12 07:26:12;;;;;;;6.50;3.72;;;;;;;;;;4974251;28;20042;-88
2021/05/12 07:28:38;;;;;;;5.00;3.65;;;;;;;;;;4978418;28;20033;-88
2021/05/12 07:31:05;;;;;;;8.00;3.17;;;;;;;;;;4979021;28;20038;-89
2021/05/12 07:33:31;;;;;;;6.78;3.33;;;;;;;;;;4979035;28;20395;-88
2021/05/12 07:35:57;;;;;;;5.75;2.90;;;;;;;;;;4977768;28;20033;-88
2021/05/12 07:38:23;;;;;;;3.72;2.55;;;;;;;;;;4978776;28;20461;-88
2021/05/12 07:40:50;;;;;;;6.63;3.35;;;;;;;;;;4977529;28;20027;-87
2021/05/12 07:43:16;;;;;;;5.53;3.25;;;;;;;;;;4976869;28;20118;-86
2021/05/12 07:45:43;;;;;;;4.07;2.50;;;;;;;;;;4978053;28;20038;-87
2021/05/12 07:48:10;;;;;;;3.25;2.08;;;;;;;;;;4979311;28;20038;-88
2021/05/12 07:50:37;;;;;;;4.47;1.65;;;;;;;;;;4976785;28;20034;-87
2021/05/12 07:53:05;;;;;;;4.07;1.88;;;;;;;;;;4978090;28;20026;-88
2021/05/12 07:55:32;;;;;;;3.80;1.83;;;;;;;;;;4977344;28;20121;-87
2021/05/12 07:57:58;;;;;;;2.65;1.80;;;;;;;;;;4978392;28;20034;-88
2021/05/12 08:00:25;;;;;;;4.07;1.92;;;;;;;;;;4977324;28;20122;-87
2021/05/12 08:02:51;;;;;;;4.40;2.00;;;;;;;;;;4978287;28;20534;-87
2021/05/12 08:05:18;;;;;;;5.47;2.10;;;;;;;;;;4978907;28;20468;-88
2021/05/12 08:07:44;;;;;;;6.25;2.17;;;;;;;;;;4979053;28;20023;-87
2021/05/12 08:10:10;;;;;;;4.90;2.00;;;;;;;;;;4977257;28;20119;-82
2021/05/12 08:12:37;;;;;;;2.70;1.80;;;;;;;;;;4977353;28;20054;-87
2021/05/12 08:15:03;;;;;;;4.07;1.75;;;;;;;;;;4978234;28;20102;-86
2021/05/12 08:17:30;;;;;;;2.50;1.60;;;;;;;;;;4978192;28;20038;-88
2021/05/12 08:19:59;;;;;;;4.05;1.38;;;;;;;;;;4978317;28;20031;-87
2021/05/12 08:22:25;;;;;;;2.08;1.08;;;;;;;;;;4976918;28;20372;-88
2021/05/12 08:24:52;;;;;;;3.38;0.75;;;;;;;;;;4977986;28;20109;-88
2021/05/12 08:27:18;;;;;;;3.28;0.73;;;;;;;;;;4976295;28;20495;-83
2021/05/12 08:29:45;;;;;;;2.63;0.80;;;;;;;;;;4977433;28;20424;-87
2021/05/12 08:32:14;;;;;;;1.80;1.00;;;;;;;;;;4977869;28;20077;-87
2021/05/12 08:34:41;;;;;;;1.48;0.70;;;;;;;;;;4976444;28;20081;-86
2021/05/12 08:37:07;;;;;;;1.20;0.60;;;;;;;;;;4977798;28;20031;-86
2021/05/12 08:39:34;;;;;;;2.17;0.77;;;;;;;;;;4975672;28;20034;-87
2021/05/12 08:42:00;;;;;;;2.90;0.70;;;;;;;;;;4976373;28;20045;-87
2021/05/12 08:44:27;;;;;;;1.58;0.80;;;;;;;;;;4975702;28;20022;-87
2021/05/12 08:46:53;;;;;;;3.25;0.47;;;;;;;;;;4977572;28;20039;-87
2021/05/12 08:49:20;;;;;;;1.05;0.50;;;;;;;;;;4977568;28;20030;-88
2021/05/12 08:51:47;;;;;;;1.30;0.60;;;;;;;;;;4976305;28;20054;-87
2021/05/12 08:54:14;;;;;;;1.88;0.60;;;;;;;;;;4977435;28;20035;-87
2021/05/12 08:56:40;;;;;;;2.05;0.73;;;;;;;;;;4977652;28;20393;-85
2021/05/12 08:59:06;;;;;;;1.67;0.50;;;;;;;;;;4976617;28;20031;-83
2021/05/12 09:01:33;;;;;;;1.60;0.40;;;;;;;;;;4976680;28;20473;-84
2021/05/12 09:04:01;;;;;;;1.55;0.30;;;;;;;;;;4977459;28;20053;-85
2021/05/12 09:06:28;;;;;;;4.20;0.63;;;;;;;;;;4976887;28;20527;-85
2021/05/12 09:08:57;;;;;;;2.25;0.70;;;;;;;;;;4975681;28;20400;-84
2021/05/12 09:11:23;;;;;;;2.35;0.70;;;;;;;;;;4975438;28;20042;-85
2021/05/12 09:13:49;;;;;;;4.60;0.40;;;;;;;;;;4975695;28;20027;-83
2021/05/12 09:16:16;;;;;;;0.73;0.30;;;;;;;;;;4975219;28;20038;-83
2021/05/12 09:18:42;;;;;;;1.92;0.60;;;;;;;;;;4975804;28;20034;-84
2021/05/12 09:21:09;;;;;;;2.47;0.32;;;;;;;;;;4975891;28;20037;-86
2021/05/12 09:23:39;;;;;;;3.67;0.40;;;;;;;;;;4977130;28;20027;-86
2021/05/12 09:26:10;;;;;;;0.77;0.38;;;;;;;;;;4977334;28;20030;-85
2021/05/12 09:28:36;;;;;;;1.10;0.40;;;;;;;;;;4976971;28;20030;-84
2021/05/12 09:31:04;;;;;;;1.45;0.43;;;;;;;;;;4974872;28;20039;-85
2021/05/12 09:33:31;;;;;;;2.75;0.50;;;;;;;;;;4975871;28;20396;-85
2021/05/12 09:35:59;;;;;;;1.35;0.60;;;;;;;;;;4975393;28;20038;-83
2021/05/12 09:38:26;;;;;;;1.38;0.40;;;;;;;;;;4977293;28;20449;-83
2021/05/12 09:41:01;;;;;;;1.25;0.40;;;;;;;;;;4975390;28;20043;-85
2021/05/12 09:43:28;;;;;;;1.38;0.45;;;;;;;;;;4975406;28;20031;-83
2021/05/12 09:45:55;;;;;;;0.88;0.32;;;;;;;;;;4976428;28;20376;-83
2021/05/12 09:48:22;;;;;;;0.90;0.30;;;;;;;;;;4974948;28;20439;-85
2021/05/12 09:50:49;;;;;;;1.52;0.30;;;;;;;;;;4976211;28;20027;-84
2021/05/12 09:53:15;;;;;;;6.07;0.30;;;;;;;;;;4975173;28;20072;-85
2021/05/12 09:55:46;;;;;;;2.40;0.30;;;;;;;;;;4976993;28;20026;-84
2021/05/12 09:58:17;;;;;;;1.73;0.13;;;;;;;;;;4974991;28;20035;-85
2021/05/12 10:00:50;;;;;;;0.82;0.20;;;;;;;;;;4975220;28;20030;-86
2021/05/12 10:03:17;;;;;;;0.77;0.35;;;;;;;;;;4974926;28;20042;-84
2021/05/12 10:06:09;;;;;;;1.60;0.30;;;;;;;;;;4975202;28;20019;-86
2021/05/12 10:08:36;;;;;;;0.80;0.30;;;;;;;;;;4974015;28;20045;-82
2021/05/12 10:11:04;;;;;;;0.32;0.17;;;;;;;;;;4977101;28;20039;-85
2021/05/12 10:13:31;;;;;;;0.80;0.20;;;;;;;;;;4974329;28;20523;-82
2021/05/12 10:15:57;;;;;;;0.80;0.30;;;;;;;;;;4974477;28;20047;-86
2021/05/12 10:18:23;;;;;;;1.00;0.30;;;;;;;;;;4974896;28;20110;-83
2021/05/12 10:20:56;;;;;;;0.77;0.20;;;;;;;;;;4976189;28;20022;-84
2021/05/12 10:23:23;;;;;;;0.43;0.20;;;;;;;;;;4975029;28;20472;-85
2021/05/12 10:25:49;;;;;;;0.38;0.10;;;;;;;;;;4976201;28;20078;-86
2021/05/12 10:28:16;;;;;;;1.88;0.45;;;;;;;;;;4975955;28;20102;-85
2021/05/12 10:30:42;;;;;;;0.77;0.40;;;;;;;;;;4975261;28;20026;-84
2021/05/12 10:33:12;;;;;;;1.35;0.30;;;;;;;;;;4976602;28;20066;-85
2021/05/12 10:35:39;;;;;;;1.25;0.28;;;;;;;;;;4974759;28;20511;-84
2021/05/12 10:38:07;;;;;;;3.00;0.50;;;;;;;;;;4976059;28;20062;-84
2021/05/12 10:40:40;;;;;;;0.60;0.30;;;;;;;;;;4974930;28;20023;-85
2021/05/12 10:46:29;;;;;;;1.13;0.30;;;;;;;;;;4975963;28;20027;-85
2021/05/12 10:48:32;;;;;;;2.03;0.50;;;;;;;;;;4968550;28;20034;-84
2021/05/12 10:50:59;;;;;;;4.93;0.50;;;;;;;;;;4975905;28;20388;-84
2021/05/12 10:53:32;;;;;;;2.88;0.73;;;;;;;;;;4973977;28;20031;-81
2021/05/12 10:55:58;;;;;;;;;;;;;;;;;;4974323;28;20034;-84
2021/05/12 10:58:26;;;;;;;0.82;0.30;;;;;;;;;;4975287;28;19906;-84
2021/05/12 11:01:05;;;;;;;2.17;0.50;;;;;;;;;;4976776;28;20085;-84
2021/05/12 11:06:20;;;;;;;3.17;0.60;;;;;;;;;;4980321;28;20043;-84
2021/05/12 11:09:08;;;;;;;1.25;0.52;;;;;;;;;;4979982;28;20414;-85
2021/05/12 11:11:50;;;;;;;1.42;0.70;;;;;;;;;;4978076;28;20484;-84
2021/05/12 11:14:22;;;;;;;1.17;0.52;;;;;;;;;;4978189;28;20027;-84
2021/05/12 11:17:07;;;;;;;1.13;0.30;;;;;;;;;;4977710;28;20031;-84
2021/05/12 11:19:47;;;;;;;1.02;0.40;;;;;;;;;;4977620;28;20035;-81
2021/05/12 11:22:27;;;;;;;3.40;0.60;;;;;;;;;;4979701;28;20018;-85
2021/05/12 11:24:57;;;;;;;1.30;0.30;;;;;;;;;;4977967;28;20113;-83
2021/05/12 11:32:34;;;;;;;1.77;0.47;;;;;;;;;;4979182;28;20384;-84
2021/05/12 11:35:00;;;;;;;0.57;0.30;;;;;;;;;;4977617;28;20031;-83
2021/05/12 11:37:27;;;;;;;1.23;0.50;;;;;;;;;;4977466;28;20033;-81
2021/05/12 11:39:55;;;;;;;0.98;0.28;;;;;;;;;;4981145;28;20030;-81
2021/05/12 11:42:30;;;;;;;3.60;0.35;;;;;;;;;;4978344;28;20062;-81
2021/05/12 11:45:06;;;;;;;2.85;0.40;;;;;;;;;;4977347;28;20034;-82
2021/05/12 11:47:33;;;;;;;1.00;0.30;;;;;;;;;;4977356;28;20030;-82
2021/05/12 11:49:59;;;;;;;0.68;0.30;;;;;;;;;;4977453;28;20081;-82
2021/05/12 11:52:28;;;;;;;0.75;0.35;;;;;;;;;;4977284;28;20053;-82
2021/05/12 11:54:54;;;;;;;0.85;0.20;;;;;;;;;;4977645;28;20023;-81
2021/05/12 11:57:21;;;;;;;0.80;0.30;;;;;;;;;;4977119;28;20035;-81
2021/05/12 11:59:47;;;;;;;0.60;0.25;;;;;;;;;;4977732;28;20023;-84
2021/05/12 12:02:13;;;;;;;0.98;0.40;;;;;;;;;;4977342;28;20022;-84
2021/05/12 12:04:53;;;;;;;0.75;0.20;;;;;;;;;;4977507;28;20050;-82
2021/05/12 12:07:19;;;;;;;0.57;0.20;;;;;;;;;;4978576;28;20023;-81
2021/05/12 12:09:46;;;;;;;0.68;0.20;;;;;;;;;;4978694;28;20022;-81
2021/05/12 12:12:12;;;;;;;0.60;0.30;;;;;;;;;;4977438;28;20059;-81
2021/05/12 12:14:38;;;;;;;1.48;0.30;;;;;;;;;;4975236;28;20026;-83
2021/05/12 12:17:11;;;;;;;3.50;0.30;;;;;;;;;;4975784;28;20039;-83
2021/05/12 12:19:37;;;;;;;0.40;0.20;;;;;;;;;;4976183;28;20084;-84
2021/05/12 12:22:04;;;;;;;0.40;0.20;;;;;;;;;;4976977;28;20034;-82
2021/05/12 12:24:31;;;;;;;0.40;0.10;;;;;;;;;;4976451;28;20030;-83
2021/05/12 12:26:58;;;;;;;0.88;0.20;;;;;;;;;;4976489;28;20035;-83
2021/05/12 12:29:25;;;;;;;0.70;0.25;;;;;;;;;;4976620;28;20018;-83
2021/05/12 12:31:53;;;;;;;1.33;0.30;;;;;;;;;;4976658;28;20117;-83
2021/05/12 12:34:23;;;;;;;0.57;0.20;;;;;;;;;;4977599;28;20050;-85
2021/05/12 12:36:53;;;;;;;1.02;0.20;;;;;;;;;;4975922;28;20031;-83
2021/05/12 12:39:20;;;;;;;0.70;0.30;;;;;;;;;;4976524;28;20027;-84
2021/05/12 12:41:51;;;;;;;1.38;0.30;;;;;;;;;;4977636;28;20023;-84
2021/05/12 12:44:19;;;;;;;0.55;0.20;;;;;;;;;;4976464;28;20388;-83
2021/05/12 12:46:56;;;;;;;1.75;0.40;;;;;;;;;;4976603;28;20037;-84
2021/05/12 12:49:33;;;;;;;1.52;0.52;;;;;;;;;;4976403;28;20101;-85
2021/05/12 12:52:08;;;;;;;1.00;0.60;;;;;;;;;;4978048;28;20491;-84
2021/05/12 12:54:50;;;;;;;2.28;0.50;;;;;;;;;;4976803;28;20047;-84
2021/05/12 12:57:17;;;;;;;1.00;0.40;;;;;;;;;;4976055;28;20027;-83
2021/05/12 13:00:01;;;;;;;1.35;0.57;;;;;;;;;;4975853;28;20023;-84
2021/05/12 13:02:27;;;;;;;1.15;0.40;;;;;;;;;;4977897;28;20031;-84
2021/05/12 13:05:12;;;;;;;1.30;0.55;;;;;;;;;;4975868;28;20118;-82
2021/05/12 13:07:38;;;;;;;2.30;0.75;;;;;;;;;;4977297;28;20019;-82
2021/05/12 13:10:23;;;;;;;1.00;0.43;;;;;;;;;;4975525;28;20027;-85
2021/05/12 13:12:49;;;;;;;0.60;0.40;;;;;;;;;;4976531;28;20047;-83
2021/05/12 13:15:22;;;;;;;0.73;0.40;;;;;;;;;;4975521;28;20031;-83
2021/05/12 13:17:55;;;;;;;1.08;0.50;;;;;;;;;;4975987;28;20064;-82
2021/05/12 13:20:22;;;;;;;1.38;0.80;;;;;;;;;;4975889;28;20034;-84
2021/05/12 13:23:08;;;;;;;1.35;0.43;;;;;;;;;;4975717;28;20041;-83
2021/05/12 13:25:35;;;;;;;1.00;0.32;;;;;;;;;;4975174;28;20498;-85
2021/05/12 13:28:06;;;;;;;1.08;0.50;;;;;;;;;;4975818;28;20031;-84
2021/05/12 13:30:32;;;;;;;2.38;0.32;;;;;;;;;;4975768;28;20027;-82
2021/05/12 13:32:58;;;;;;;1.33;0.60;;;;;;;;;;4975474;28;20042;-84
2021/05/12 13:35:24;;;;;;;1.70;0.65;;;;;;;;;;4975139;28;20038;-84
2021/05/12 13:37:51;;;;;;;4.00;0.75;;;;;;;;;;4976115;28;20038;-83
2021/05/12 13:40:18;;;;;;;1.60;0.60;;;;;;;;;;4976402;28;20484;-84
2021/05/12 13:42:44;;;;;;;2.30;0.50;;;;;;;;;;4977725;28;20563;-84
2021/05/12 13:45:13;;;;;;;2.42;0.55;;;;;;;;;;4974255;28;20115;-83
2021/05/12 13:47:39;;;;;;;3.63;0.73;;;;;;;;;;4974507;28;20125;-85
2021/05/12 13:50:06;;;;;;;1.13;0.60;;;;;;;;;;4976300;28;20074;-82
2021/05/12 13:52:51;;;;;;;1.40;0.70;;;;;;;;;;4974499;28;20034;-85
2021/05/12 13:55:29;;;;;;;2.97;0.88;;;;;;;;;;4974635;28;20077;-83
2021/05/12 14:03:07;;;;;;;1.90;0.80;;;;;;;;;;4975663;28;20086;-82
2021/05/12 14:05:36;;;;;;;1.23;0.60;;;;;;;;;;4976795;28;20503;-85
2021/05/12 14:08:03;;;;;;;1.80;0.70;;;;;;;;;;4976331;28;20027;-83
2021/05/12 14:10:35;;;;;;;2.33;0.65;;;;;;;;;;4976057;28;20030;-82
2021/05/12 14:13:36;;;;;;;4.88;2.25;;;;;;;;;;4974917;28;20055;-82
2021/05/12 14:16:21;;;;;;;1.50;0.60;;;;;;;;;;4974434;28;20034;-84
2021/05/12 14:18:48;;;;;;;1.30;0.50;;;;;;;;;;4976219;28;20102;-85
2021/05/12 14:21:15;;;;;;;1.17;0.43;;;;;;;;;;4975034;28;20027;-85
2021/05/12 14:23:41;;;;;;;1.77;0.70;;;;;;;;;;4974795;28;20031;-84
2021/05/12 14:26:08;;;;;;;0.90;0.45;;;;;;;;;;4975116;28;20034;-84
2021/05/12 14:28:51;;;;;;;1.40;0.50;;;;;;;;;;4976566;28;20386;-84
2021/05/12 14:31:18;;;;;;;1.05;0.50;;;;;;;;;;4974823;28;20074;-84
2021/05/12 14:33:44;;;;;;;1.52;0.70;;;;;;;;;;4974027;28;20472;-84
2021/05/12 14:36:11;;;;;;;1.55;0.63;;;;;;;;;;4976108;28;20566;-84
2021/05/12 14:38:38;;;;;;;1.55;0.60;;;;;;;;;;4979831;28;20034;-85
2021/05/12 14:41:04;;;;;;;2.55;0.60;;;;;;;;;;4980508;28;20042;-86
2021/05/12 14:43:30;;;;;;;1.05;0.50;;;;;;;;;;4979853;28;20065;-86
2021/05/12 14:45:57;;;;;;;2.28;0.75;;;;;;;;;;4979916;28;20065;-84
2021/05/12 14:48:28;;;;;;;1.63;0.70;;;;;;;;;;4979650;28;20468;-85
2021/05/12 14:50:56;;;;;;;1.25;0.60;;;;;;;;;;4979233;28;20026;-83
2021/05/12 14:53:31;;;;;;;2.58;0.82;;;;;;;;;;4980285;28;20027;-85
2021/05/12 15:09:01;;;;;;;1.88;0.80;;;;;;;;;;4979588;28;20033;-85
2021/05/12 15:11:28;;;;;;;2.35;0.98;;;;;;;;;;4977837;28;20039;-85
2021/05/12 15:13:54;;;;;;;2.67;1.08;;;;;;;;;;4978292;28;20054;-85
2021/05/12 15:16:22;;;;;;;5.97;1.00;;;;;;;;;;4979402;28;20123;-85